createdAt,value
2023-03-29T00:01:10.097Z,100643.34
2023-03-29T00:03:39.687Z,100639.53
2023-03-29T00:06:08.536Z,100632.38
2023-03-29T00:08:39.118Z,100629.03
2023-03-29T00:11:08.737Z,100630.09
2023-03-29T00:13:37.118Z,100633.44
2023-03-29T00:16:05.445Z,100632.38
2023-03-29T00:18:33.462Z,100633.78
2023-03-29T00:21:01.961Z,100631.16
2023-03-29T00:23:30.266Z,100632.97
2023-03-29T00:25:59.082Z,100629.28
2023-03-29T00:28:28.662Z,100624.75
2023-03-29T00:31:11.072Z,100619.25
2023-03-29T00:33:39.876Z,100611.97
2023-03-29T00:36:10.615Z,100615.31
2023-03-29T00:38:41.596Z,100610.06
2023-03-29T00:41:10.644Z,100610.53
2023-03-29T00:43:58.714Z,100590.16
2023-03-29T00:46:31.070Z,100596.22
2023-03-29T00:49:06.160Z,100600.25
2023-03-29T00:51:39.937Z,100600.13
2023-03-29T00:54:15.193Z,100597.28
2023-03-29T00:56:48.408Z,100591.66
2023-03-29T00:59:21.697Z,100588.91
2023-03-29T01:01:54.593Z,100593.91
2023-03-29T01:04:29.639Z,100589.25
2023-03-29T01:07:02.330Z,100590.81
2023-03-29T01:09:35.834Z,100584.59
2023-03-29T01:12:09.187Z,100585.03
2023-03-29T01:14:43.215Z,100576.09
2023-03-29T01:17:12.922Z,100583.72
2023-03-29T01:19:47.182Z,100589.56
2023-03-29T01:22:28.389Z,100591.94
2023-03-29T01:25:13.304Z,100577.84
2023-03-29T01:27:52.205Z,100595.16
2023-03-29T01:30:25.390Z,100582.00
2023-03-29T01:32:59.366Z,100578.31
2023-03-29T01:35:38.585Z,100581.78
2023-03-29T01:38:11.579Z,100562.56
2023-03-29T01:40:39.757Z,100557.41
2023-03-29T01:43:15.240Z,100556.47
2023-03-29T01:45:51.041Z,100558.13
2023-03-29T01:48:26.945Z,100557.19
2023-03-29T01:51:00.357Z,100556.34
2023-03-29T01:53:35.285Z,100562.19
2023-03-29T01:56:07.789Z,100556.94
2023-03-29T01:58:41.418Z,100552.38
2023-03-29T02:01:12.260Z,100553.06
2023-03-29T02:03:46.920Z,100548.41
2023-03-29T02:06:18.441Z,100547.19
2023-03-29T02:08:47.480Z,100536.56
2023-03-29T02:11:15.751Z,100535.47
2023-03-29T02:13:45.844Z,100539.63
2023-03-29T02:16:15.948Z,100538.56
2023-03-29T02:18:50.624Z,100533.03
2023-03-29T02:21:24.438Z,100531.84
2023-03-29T02:23:55.124Z,100527.97
2023-03-29T02:26:24.066Z,100519.97
2023-03-29T02:29:02.637Z,100511.81
2023-03-29T02:31:36.007Z,100509.78
2023-03-29T02:34:08.970Z,100509.66
2023-03-29T02:36:43.165Z,100499.38
2023-03-29T02:39:15.663Z,100511.28
2023-03-29T02:41:47.374Z,100505.91
2023-03-29T02:44:21.794Z,100498.84
2023-03-29T02:46:54.486Z,100496.09
2023-03-29T02:49:23.304Z,100484.63
2023-03-29T02:51:53.852Z,100481.03
2023-03-29T02:54:23.845Z,100473.03
2023-03-29T02:56:57.731Z,100485.78
2023-03-29T02:59:29.937Z,100479.41
2023-03-29T03:01:58.481Z,100479.84
2023-03-29T03:04:27.005Z,100471.59
2023-03-29T03:06:55.322Z,100473.09
2023-03-29T03:09:23.528Z,100454.84
2023-03-29T03:11:51.625Z,100458.44
2023-03-29T03:14:23.005Z,100446.97
2023-03-29T03:16:58.639Z,100448.75
2023-03-29T03:19:26.754Z,100454.84
2023-03-29T03:21:54.902Z,100451.09
2023-03-29T03:24:23.229Z,100446.13
2023-03-29T03:26:51.916Z,100446.97
2023-03-29T03:29:20.398Z,100458.56
2023-03-29T03:31:55.795Z,100443.88
2023-03-29T03:34:26.408Z,100435.28
2023-03-29T03:36:55.663Z,100437.91
2023-03-29T03:39:23.963Z,100438.47
2023-03-29T03:41:52.078Z,100434.44
2023-03-29T03:44:20.178Z,100422.38
2023-03-29T03:46:48.549Z,100427.19
2023-03-29T03:49:16.621Z,100426.50
2023-03-29T03:51:46.399Z,100423.44
2023-03-29T03:54:14.563Z,100422.97
2023-03-29T03:56:43.549Z,100413.84
2023-03-29T03:59:11.658Z,100416.97
2023-03-29T04:01:43.642Z,100405.88
2023-03-29T04:04:12.438Z,100401.75
2023-03-29T04:06:43.131Z,100403.81
2023-03-29T04:09:13.119Z,100402.97
2023-03-29T04:11:44.337Z,100392.97
2023-03-29T04:14:12.443Z,100404.19
2023-03-29T04:16:40.493Z,100391.88
2023-03-29T04:19:08.573Z,100390.22
2023-03-29T04:21:36.719Z,100392.00
2023-03-29T04:24:04.843Z,100391.31
2023-03-29T04:26:37.204Z,100387.28
2023-03-29T04:29:08.103Z,100376.78
2023-03-29T04:31:36.460Z,100372.25
2023-03-29T04:34:04.615Z,100366.69
2023-03-29T04:36:32.795Z,100356.19
2023-03-29T04:39:01.758Z,100355.94
2023-03-29T04:41:30.206Z,100352.47
2023-03-29T04:44:00.564Z,100342.69
2023-03-29T04:46:28.840Z,100341.72
2023-03-29T04:48:57.525Z,100353.63
2023-03-29T04:51:25.889Z,100356.13
2023-03-29T04:53:54.133Z,100345.63
2023-03-29T04:56:23.177Z,100340.22
2023-03-29T04:58:51.378Z,100331.38
2023-03-29T05:01:21.540Z,100334.56
2023-03-29T05:03:49.645Z,100338.72
2023-03-29T05:06:24.668Z,100335.13
2023-03-29T05:08:52.853Z,100328.22
2023-03-29T05:11:21.501Z,100326.56
2023-03-29T05:13:49.555Z,100320.47
2023-03-29T05:16:17.767Z,100316.03
2023-03-29T05:18:47.710Z,100318.81
2023-03-29T05:21:18.541Z,100318.94
2023-03-29T05:23:48.119Z,100305.09
2023-03-29T05:26:16.940Z,100306.75
2023-03-29T05:28:45.074Z,100310.34
2023-03-29T05:31:16.689Z,100311.75
2023-03-29T05:33:46.456Z,100296.56
2023-03-29T05:36:16.113Z,100286.19
2023-03-29T05:38:46.770Z,100287.72
2023-03-29T05:41:15.930Z,100287.16
2023-03-29T05:43:44.031Z,100284.97
2023-03-29T05:46:15.660Z,100283.88
2023-03-29T05:48:43.840Z,100280.69
2023-03-29T05:51:13.375Z,100276.28
2023-03-29T05:53:41.781Z,100269.09
2023-03-29T05:56:10.949Z,100269.91
2023-03-29T05:58:39.540Z,100273.25
2023-03-29T06:01:12.943Z,100269.38
2023-03-29T06:03:42.288Z,100260.53
2023-03-29T06:06:33.245Z,100265.09
2023-03-29T06:09:01.436Z,100247.91
2023-03-29T06:11:29.593Z,100244.19
2023-03-29T06:13:57.647Z,100244.50
2023-03-29T06:16:26.316Z,100242.38
2023-03-29T06:18:54.536Z,100244.47
2023-03-29T06:21:48.489Z,100240.31
2023-03-29T06:24:16.627Z,100236.56
2023-03-29T06:26:45.194Z,100232.72
2023-03-29T06:29:13.400Z,100223.72
2023-03-29T06:31:42.222Z,100227.00
2023-03-29T06:34:10.376Z,100226.22
2023-03-29T06:36:39.030Z,100219.13
2023-03-29T06:39:08.504Z,100227.00
2023-03-29T06:41:36.786Z,100214.16
2023-03-29T06:44:05.206Z,100210.25
2023-03-29T06:46:34.372Z,100201.25
2023-03-29T06:49:02.638Z,100212.47
2023-03-29T06:51:30.803Z,100203.75
2023-03-29T06:53:58.890Z,100209.16
2023-03-29T06:56:29.923Z,100195.84
2023-03-29T06:58:57.983Z,100199.59
2023-03-29T07:01:26.536Z,100194.16
2023-03-29T07:03:54.843Z,100195.56
2023-03-29T07:06:23.358Z,100192.78
2023-03-29T07:08:52.512Z,100189.88
2023-03-29T07:11:23.240Z,100179.34
2023-03-29T07:13:52.757Z,100179.63
2023-03-29T07:16:22.121Z,100177.28
2023-03-29T07:18:54.148Z,100175.94
2023-03-29T07:21:22.764Z,100168.16
2023-03-29T07:23:52.297Z,100170.78
2023-03-29T07:26:28.815Z,100163.94
2023-03-29T07:29:01.031Z,100157.44
2023-03-29T07:31:30.897Z,100160.75
2023-03-29T07:34:00.672Z,100155.50
2023-03-29T07:36:28.974Z,100156.19
2023-03-29T07:38:57.949Z,100150.78
2023-03-29T07:41:26.644Z,100160.63
2023-03-29T07:43:55.923Z,100142.47
2023-03-29T07:46:26.355Z,100130.28
2023-03-29T07:48:56.759Z,100128.06
2023-03-29T07:51:25.059Z,100128.88
2023-03-29T07:53:53.219Z,100118.22
2023-03-29T07:56:21.808Z,100110.56
2023-03-29T07:58:49.864Z,100113.59
2023-03-29T08:01:19.944Z,100103.97
2023-03-29T08:03:49.805Z,100098.78
2023-03-29T08:06:17.998Z,100095.34
2023-03-29T08:08:46.372Z,100098.50
2023-03-29T08:11:20.671Z,100085.47
2023-03-29T08:13:48.808Z,100085.47
2023-03-29T08:16:18.517Z,100078.88
2023-03-29T08:18:46.678Z,100075.69
2023-03-29T08:21:19.111Z,100083.59
2023-03-29T08:23:47.303Z,100080.34
2023-03-29T08:26:18.623Z,100070.34
2023-03-29T08:28:47.050Z,100071.19
2023-03-29T08:31:15.318Z,100075.59
2023-03-29T08:33:44.352Z,100073.84
2023-03-29T08:36:13.132Z,100066.84
2023-03-29T08:38:43.079Z,100068.50
2023-03-29T08:41:34.396Z,100069.88
2023-03-29T08:44:13.271Z,100067.59
2023-03-29T08:46:50.632Z,100073.63
2023-03-29T08:49:21.333Z,100065.25
2023-03-29T08:51:53.310Z,100057.06
2023-03-29T08:54:27.320Z,100049.53
2023-03-29T08:57:03.248Z,100067.16
2023-03-29T08:59:34.776Z,100063.38
2023-03-29T09:02:07.167Z,100050.56
2023-03-29T09:04:42.939Z,100045.19
2023-03-29T09:07:11.661Z,100054.97
2023-03-29T09:09:42.227Z,100051.06
2023-03-29T09:12:22.739Z,100045.03
2023-03-29T09:15:00.750Z,100030.88
2023-03-29T09:17:44.711Z,100047.06
2023-03-29T09:20:24.131Z,100042.47
2023-03-29T09:23:04.246Z,100032.41
2023-03-29T09:25:53.500Z,100023.44
2023-03-29T09:28:37.009Z,100020.94
2023-03-29T09:31:12.580Z,100014.31
2023-03-29T09:33:43.766Z,100016.34
2023-03-29T09:36:16.513Z,100015.88
2023-03-29T09:38:48.114Z,100015.72
2023-03-29T09:41:26.658Z,100011.63
2023-03-29T09:43:58.764Z,100003.44
2023-03-29T09:46:30.737Z,100006.09
2023-03-29T09:48:58.989Z,100004.34
2023-03-29T09:51:31.557Z,100002.84
2023-03-29T09:54:00.756Z,99991.81
2023-03-29T09:56:31.256Z,99991.16
2023-03-29T09:59:01.721Z,99995.00
2023-03-29T10:01:38.693Z,99986.09
2023-03-29T10:04:09.270Z,99983.81
2023-03-29T10:06:39.015Z,99993.41
2023-03-29T10:09:16.955Z,99984.50
2023-03-29T10:11:50.955Z,99983.34
2023-03-29T10:14:21.544Z,99978.72
2023-03-29T10:16:57.092Z,99974.63
2023-03-29T10:19:30.399Z,99976.13
2023-03-29T10:22:01.365Z,99973.31
2023-03-29T10:24:29.710Z,99973.78
2023-03-29T10:27:03.266Z,99982.22
2023-03-29T10:29:38.321Z,99968.00
2023-03-29T10:32:16.752Z,99974.63
2023-03-29T10:34:47.382Z,99972.16
2023-03-29T10:37:16.728Z,99971.78
2023-03-29T10:39:44.994Z,99970.94
2023-03-29T10:42:16.739Z,99978.22
2023-03-29T10:44:55.525Z,99964.34
2023-03-29T10:47:35.452Z,99970.44
2023-03-29T10:50:08.319Z,99959.53
2023-03-29T10:52:36.443Z,99965.94
2023-03-29T10:55:08.607Z,99964.44
2023-03-29T10:57:49.045Z,99954.00
2023-03-29T11:00:19.890Z,99958.13
2023-03-29T11:03:05.940Z,99950.34
2023-03-29T11:05:40.112Z,99949.50
2023-03-29T11:08:31.667Z,99946.81
2023-03-29T11:11:11.633Z,99933.50
2023-03-29T11:13:49.805Z,99944.38
2023-03-29T11:16:29.193Z,99940.38
2023-03-29T11:19:33.302Z,99944.63
2023-03-29T11:22:08.765Z,99939.56
2023-03-29T11:24:49.194Z,99937.28
2023-03-29T11:27:30.112Z,99936.97
2023-03-29T11:30:08.751Z,99943.97
2023-03-29T11:32:47.590Z,99938.06
2023-03-29T11:35:31.957Z,99935.69
2023-03-29T11:38:07.152Z,99934.78
2023-03-29T11:40:46.693Z,99938.91
2023-03-29T11:43:22.066Z,99942.00
2023-03-29T11:45:56.874Z,99940.59
2023-03-29T11:48:31.008Z,99948.63
2023-03-29T11:51:04.813Z,99945.28
2023-03-29T11:53:40.973Z,99942.63
2023-03-29T11:56:14.735Z,99960.63
2023-03-29T11:58:49.128Z,99956.72
2023-03-29T12:01:28.887Z,99938.97
2023-03-29T12:04:00.401Z,99932.50
2023-03-29T12:06:33.005Z,99947.09
2023-03-29T12:09:09.688Z,99944.63
2023-03-29T12:11:41.588Z,99941.09
2023-03-29T12:14:15.821Z,99944.53
2023-03-29T12:16:50.137Z,99938.31
2023-03-29T12:19:21.949Z,99937.31
2023-03-29T12:21:50.891Z,99936.09
2023-03-29T12:24:22.099Z,99937.09
2023-03-29T12:27:05.331Z,99939.94
2023-03-29T12:29:56.570Z,99932.63
2023-03-29T12:32:46.567Z,99935.38
2023-03-29T12:35:28.866Z,99926.25
2023-03-29T12:38:07.322Z,99935.50
2023-03-29T12:40:43.502Z,99940.81
2023-03-29T12:43:21.630Z,99943.19
2023-03-29T12:45:53.947Z,99949.78
2023-03-29T12:48:26.849Z,99942.56
2023-03-29T12:51:00.842Z,99937.28
2023-03-29T12:53:33.797Z,99939.97
2023-03-29T12:56:15.462Z,99930.28
2023-03-29T12:58:53.489Z,99937.75
2023-03-29T13:01:31.138Z,99932.56
2023-03-29T13:04:19.335Z,99932.19
2023-03-29T13:07:04.372Z,99935.56
2023-03-29T13:09:36.840Z,99933.16
2023-03-29T13:12:14.614Z,99932.34
2023-03-29T13:14:46.396Z,99930.88
2023-03-29T13:17:26.434Z,99936.00
2023-03-29T13:20:12.646Z,99936.28
2023-03-29T13:22:52.564Z,99929.91
2023-03-29T13:25:41.354Z,99929.81
2023-03-29T13:28:20.048Z,99938.88
2023-03-29T13:30:58.345Z,99936.91
2023-03-29T13:33:45.913Z,99937.19
2023-03-29T13:36:26.578Z,99944.44
2023-03-29T13:38:56.996Z,99936.09
2023-03-29T13:41:33.876Z,99937.81
2023-03-29T13:44:03.476Z,99936.72
2023-03-29T13:46:41.043Z,99940.06
2023-03-29T13:49:22.835Z,99936.84
2023-03-29T13:52:08.175Z,99934.16
2023-03-29T13:54:42.901Z,99935.88
2023-03-29T13:57:17.239Z,99937.09
2023-03-29T13:59:53.265Z,99935.59
2023-03-29T14:02:30.789Z,99938.66
2023-03-29T14:05:05.758Z,99949.66
2023-03-29T14:07:38.354Z,99939.59
2023-03-29T14:10:08.807Z,99954.00
2023-03-29T14:12:41.909Z,99954.09
2023-03-29T14:15:23.840Z,99944.16
2023-03-29T14:17:58.301Z,99947.03
2023-03-29T14:20:28.899Z,99952.53
2023-03-29T14:22:59.021Z,99958.84
2023-03-29T14:25:32.312Z,99955.41
2023-03-29T14:28:00.620Z,99947.47
2023-03-29T14:30:31.920Z,99960.72
2023-03-29T14:33:05.098Z,99958.56
2023-03-29T14:35:34.351Z,99951.44
2023-03-29T14:38:04.187Z,99961.22
2023-03-29T14:40:34.048Z,99955.59
2023-03-29T14:43:08.811Z,99962.88
2023-03-29T14:45:38.311Z,99968.69
2023-03-29T14:48:07.323Z,99967.00
2023-03-29T14:50:36.527Z,99971.16
2023-03-29T14:53:07.515Z,99974.63
2023-03-29T14:55:36.752Z,99964.91
2023-03-29T14:58:04.994Z,99967.34
2023-03-29T15:00:42.463Z,99971.81
2023-03-29T15:03:15.434Z,99969.66
2023-03-29T15:05:45.440Z,99979.25
2023-03-29T15:08:19.342Z,99972.47
2023-03-29T15:10:47.632Z,99980.75
2023-03-29T15:13:22.024Z,99977.28
2023-03-29T15:15:53.535Z,99984.38
2023-03-29T15:18:26.395Z,99981.38
2023-03-29T15:20:55.913Z,99986.03
2023-03-29T15:23:27.195Z,99987.16
2023-03-29T15:25:58.779Z,99977.78
2023-03-29T15:28:31.053Z,99982.72
2023-03-29T15:33:38.066Z,99989.31
2023-03-29T15:36:08.240Z,99989.84
2023-03-29T15:38:44.009Z,99987.53
2023-03-29T15:41:14.584Z,99990.81
2023-03-29T15:43:44.406Z,99991.13
2023-03-29T15:46:14.861Z,99990.50
2023-03-29T15:48:43.540Z,99991.78
2023-03-29T15:51:12.462Z,99995.94
2023-03-29T15:53:43.083Z,99990.50
2023-03-29T15:56:16.036Z,100005.19
2023-03-29T15:58:56.719Z,100003.00
2023-03-29T16:01:33.610Z,100009.75
2023-03-29T16:04:01.892Z,99994.03
2023-03-29T16:06:29.948Z,100000.72
2023-03-29T16:08:59.520Z,100003.81
2023-03-29T16:11:28.475Z,100001.31
2023-03-29T16:13:57.290Z,100010.97
2023-03-29T16:16:26.372Z,100009.16
2023-03-29T16:18:54.529Z,100012.41
2023-03-29T16:21:24.432Z,100018.47
2023-03-29T16:23:53.050Z,100010.69
2023-03-29T16:26:23.159Z,100028.34
2023-03-29T16:28:51.248Z,100031.13
2023-03-29T16:31:19.572Z,100033.75
2023-03-29T16:33:48.266Z,100039.88
2023-03-29T16:36:16.341Z,100040.69
2023-03-29T16:38:44.674Z,100043.34
2023-03-29T16:41:16.661Z,100045.59
2023-03-29T16:43:48.015Z,100047.00
2023-03-29T16:46:16.119Z,100057.47
2023-03-29T16:48:44.460Z,100053.13
2023-03-29T16:51:12.557Z,100070.31
2023-03-29T16:53:41.030Z,100066.94
2023-03-29T16:56:09.372Z,100081.31
2023-03-29T16:58:38.226Z,100072.19
2023-03-29T17:01:13.379Z,100078.22
2023-03-29T17:03:42.012Z,100077.97
2023-03-29T17:06:12.104Z,100082.25
2023-03-29T17:08:42.671Z,100090.31
2023-03-29T17:11:11.779Z,100092.03
2023-03-29T17:13:43.737Z,100092.66
2023-03-29T17:16:14.677Z,100101.81
2023-03-29T17:18:42.788Z,100098.81
2023-03-29T17:21:11.059Z,100102.84
2023-03-29T17:23:40.387Z,100120.03
2023-03-29T17:26:08.539Z,100120.84
2023-03-29T17:28:37.072Z,100121.41
2023-03-29T17:31:07.099Z,100112.59
2023-03-29T17:33:37.192Z,100130.75
2023-03-29T17:36:07.379Z,100133.50
2023-03-29T17:38:35.838Z,100133.13
2023-03-29T17:41:04.525Z,100136.75
2023-03-29T17:43:32.773Z,100137.72
2023-03-29T17:46:02.075Z,100146.28
2023-03-29T17:48:32.899Z,100145.78
2023-03-29T17:51:02.657Z,100154.06
2023-03-29T17:53:30.802Z,100151.34
2023-03-29T17:55:59.713Z,100149.94
2023-03-29T17:58:27.954Z,100149.25
2023-03-29T18:00:56.187Z,100161.56
2023-03-29T18:03:24.519Z,100174.03
2023-03-29T18:05:52.946Z,100167.69
2023-03-29T18:08:22.357Z,100175.13
2023-03-29T18:10:50.549Z,100162.72
2023-03-29T18:13:24.508Z,100171.44
2023-03-29T18:15:56.186Z,100166.44
2023-03-29T18:18:24.507Z,100180.53
2023-03-29T18:20:52.802Z,100184.28
2023-03-29T18:23:22.254Z,100176.66
2023-03-29T18:25:50.757Z,100190.34
2023-03-29T18:28:19.269Z,100185.81
2023-03-29T18:30:51.847Z,100187.72
2023-03-29T18:33:25.100Z,100179.16
2023-03-29T18:35:53.350Z,100193.81
2023-03-29T18:38:23.825Z,100176.00
2023-03-29T18:40:52.044Z,100185.53
2023-03-29T18:43:21.103Z,100193.97
2023-03-29T18:45:51.081Z,100186.47
2023-03-29T18:48:23.676Z,100196.97
2023-03-29T18:50:52.588Z,100196.97
2023-03-29T18:53:22.604Z,100196.16
2023-03-29T18:55:50.699Z,100202.38
2023-03-29T18:58:22.894Z,100210.41
2023-03-29T19:00:51.420Z,100213.88
2023-03-29T19:03:20.293Z,100218.00
2023-03-29T19:05:52.836Z,100221.47
2023-03-29T19:08:22.611Z,100223.56
2023-03-29T19:10:51.197Z,100214.28
2023-03-29T19:13:20.249Z,100225.34
2023-03-29T19:15:49.020Z,100225.22
2023-03-29T19:18:17.189Z,100215.81
2023-03-29T19:20:45.696Z,100225.75
2023-03-29T19:23:13.803Z,100232.28
2023-03-29T19:25:43.580Z,100226.84
2023-03-29T19:28:11.894Z,100237.38
2023-03-29T19:30:40.052Z,100236.53
2023-03-29T19:33:10.883Z,100237.09
2023-03-29T19:35:39.029Z,100238.19
2023-03-29T19:38:07.154Z,100252.41
2023-03-29T19:40:36.603Z,100244.00
2023-03-29T19:43:07.031Z,100237.63
2023-03-29T19:45:35.436Z,100241.91
2023-03-29T19:48:04.685Z,100241.06
2023-03-29T19:50:33.039Z,100238.59
2023-03-29T19:53:01.757Z,100244.66
2023-03-29T19:55:30.252Z,100249.25
2023-03-29T19:57:58.430Z,100241.63
2023-03-29T20:00:27.914Z,100243.00
2023-03-29T20:02:56.747Z,100242.72
2023-03-29T20:05:25.201Z,100247.38
2023-03-29T20:07:54.365Z,100246.94
2023-03-29T20:10:22.516Z,100248.75
2023-03-29T20:12:51.120Z,100253.56
2023-03-29T20:15:19.589Z,100255.50
2023-03-29T20:17:51.580Z,100259.34
2023-03-29T20:20:20.020Z,100257.97
2023-03-29T20:22:48.197Z,100247.59
2023-03-29T20:25:16.436Z,100251.88
2023-03-29T20:27:44.454Z,100253.38
2023-03-29T20:30:14.475Z,100250.50
2023-03-29T20:32:42.697Z,100255.75
2023-03-29T20:35:12.530Z,100253.13
2023-03-29T20:37:40.854Z,100255.63
2023-03-29T20:40:11.095Z,100259.22
2023-03-29T20:42:39.828Z,100261.59
2023-03-29T20:45:18.738Z,100262.16
2023-03-29T20:47:50.521Z,100278.47
2023-03-29T20:50:26.206Z,100256.91
2023-03-29T20:52:55.392Z,100259.41
2023-03-29T20:55:24.382Z,100262.84
2023-03-29T20:57:54.401Z,100265.19
2023-03-29T21:00:23.838Z,100263.28
2023-03-29T21:02:55.157Z,100255.41
2023-03-29T21:05:25.687Z,100257.91
2023-03-29T21:07:54.691Z,100254.56
2023-03-29T21:10:23.948Z,100253.34
2023-03-29T21:12:52.380Z,100263.72
2023-03-29T21:15:20.986Z,100257.91
2023-03-29T21:17:49.175Z,100259.69
2023-03-29T21:20:17.412Z,100259.13
2023-03-29T21:22:47.328Z,100271.69
2023-03-29T21:25:19.321Z,100265.16
2023-03-29T21:27:49.168Z,100264.47
2023-03-29T21:30:17.842Z,100270.53
2023-03-29T21:32:46.050Z,100268.63
2023-03-29T21:35:14.424Z,100274.84
2023-03-29T21:37:42.445Z,100278.97
2023-03-29T21:40:16.748Z,100273.00
2023-03-29T21:42:44.853Z,100261.09
2023-03-29T21:45:14.684Z,100259.56
2023-03-29T21:47:42.912Z,100260.09
2023-03-29T21:50:12.789Z,100262.97
2023-03-29T21:52:40.945Z,100269.78
2023-03-29T21:55:09.773Z,100268.66
2023-03-29T21:57:39.251Z,100257.91
2023-03-29T22:00:12.986Z,100254.91
2023-03-29T22:02:42.587Z,100252.84
2023-03-29T22:05:11.999Z,100249.09
2023-03-29T22:07:40.421Z,100256.84
2023-03-29T22:10:11.532Z,100253.69
2023-03-29T22:12:41.409Z,100257.38
2023-03-29T22:15:11.976Z,100263.72
2023-03-29T22:17:41.464Z,100257.91
2023-03-29T22:20:13.558Z,100257.66
2023-03-29T22:22:45.683Z,100252.13
2023-03-29T22:25:14.457Z,100249.25
2023-03-29T22:27:44.273Z,100247.03
2023-03-29T22:30:14.141Z,100251.22
2023-03-29T22:32:42.553Z,100240.44
2023-03-29T22:35:11.395Z,100254.41
2023-03-29T22:37:43.003Z,100246.66
2023-03-29T22:40:13.962Z,100250.00
2023-03-29T22:42:43.499Z,100249.28
2023-03-29T22:45:13.217Z,100261.84
2023-03-29T22:47:41.730Z,100254.91
2023-03-29T22:50:10.887Z,100262.91
2023-03-29T22:52:39.332Z,100261.22
2023-03-29T22:55:08.573Z,100258.22
2023-03-29T22:57:36.646Z,100266.09
2023-03-29T23:00:09.243Z,100267.47
2023-03-29T23:02:38.328Z,100264.84
2023-03-29T23:05:07.202Z,100258.94
2023-03-29T23:07:36.493Z,100258.22
2023-03-29T23:10:06.647Z,100247.66
2023-03-29T23:12:36.292Z,100259.53
2023-03-29T23:15:09.342Z,100252.88
2023-03-29T23:17:38.184Z,100254.25
2023-03-29T23:20:08.253Z,100249.50
2023-03-29T23:22:36.494Z,100257.91
2023-03-29T23:25:08.403Z,100250.72
2023-03-29T23:27:36.644Z,100254.16
2023-03-29T23:30:12.135Z,100255.69
2023-03-29T23:32:41.132Z,100251.63
2023-03-29T23:35:10.515Z,100248.56
2023-03-29T23:37:39.471Z,100248.91
2023-03-29T23:40:11.747Z,100253.06
2023-03-29T23:42:40.275Z,100249.31
2023-03-29T23:45:15.663Z,100247.53
2023-03-29T23:47:44.253Z,100241.84
2023-03-29T23:50:16.955Z,100254.16
2023-03-29T23:52:46.689Z,100253.19
2023-03-29T23:55:15.640Z,100257.19
2023-03-29T23:57:44.899Z,100249.59
